New York City, New York
Current Conditions -  °F | °C
As of 10:51 PM on Wednesday 17 Dec 2014 (Local Time) from KNYC Reporting Station
Overcast Overcast  
Wind Chill: 37°   Ceiling: 5500
Heat Index: 43°   Visibility: 10mi
Dew Point: 26°   Wind: 10mph
Humidity: 51%   Direction: 290°WNW
Pressure: 29.91"   Gusts: 18mph
Location:  40.71°N, 74.01°W
Report Text: KNYC 180351Z AUTO 29009G16KT 10SM OVC055 06/M03 A2991 RMK AO2 SLP121 T00611033 $
Loading
Personal Weather Stations






























Interactive Weather Map New forecast layout! Learn more

10-Day Weather Forecast

Advertisements
Track Severe Weather on mobile